sensor_id;sensor_type;location;lat;lon;timestamp;P1;durP1;ratioP1;P2;durP2;ratioP2
39324;SDS011;25037;49.488;9.900;2023-06-22T00:00:51;15.23;;;7.28;;
39324;SDS011;25037;49.488;9.900;2023-06-22T00:03:19;14.70;;;7.45;;
39324;SDS011;25037;49.488;9.900;2023-06-22T00:05:47;15.00;;;7.30;;
39324;SDS011;25037;49.488;9.900;2023-06-22T00:08:16;15.30;;;7.30;;
39324;SDS011;25037;49.488;9.900;2023-06-22T00:10:43;13.88;;;7.82;;
39324;SDS011;25037;49.488;9.900;2023-06-22T00:13:11;13.23;;;7.53;;
39324;SDS011;25037;49.488;9.900;2023-06-22T00:15:39;18.13;;;7.97;;
39324;SDS011;25037;49.488;9.900;2023-06-22T00:18:08;17.77;;;8.18;;
39324;SDS011;25037;49.488;9.900;2023-06-22T00:20:36;15.60;;;8.73;;
39324;SDS011;25037;49.488;9.900;2023-06-22T00:23:03;22.27;;;9.82;;
39324;SDS011;25037;49.488;9.900;2023-06-22T00:25:38;23.05;;;8.27;;
39324;SDS011;25037;49.488;9.900;2023-06-22T00:28:08;19.83;;;8.40;;
39324;SDS011;25037;49.488;9.900;2023-06-22T00:30:35;19.15;;;8.68;;
39324;SDS011;25037;49.488;9.900;2023-06-22T00:33:02;14.85;;;9.82;;
39324;SDS011;25037;49.488;9.900;2023-06-22T00:35:29;15.18;;;8.57;;
39324;SDS011;25037;49.488;9.900;2023-06-22T00:37:56;14.50;;;8.70;;
39324;SDS011;25037;49.488;9.900;2023-06-22T00:40:27;13.85;;;8.98;;
39324;SDS011;25037;49.488;9.900;2023-06-22T00:42:55;16.10;;;8.90;;
39324;SDS011;25037;49.488;9.900;2023-06-22T00:45:22;18.38;;;10.18;;
39324;SDS011;25037;49.488;9.900;2023-06-22T00:47:53;19.33;;;9.60;;
39324;SDS011;25037;49.488;9.900;2023-06-22T00:50:24;18.85;;;9.13;;
39324;SDS011;25037;49.488;9.900;2023-06-22T00:52:53;23.35;;;10.20;;
39324;SDS011;25037;49.488;9.900;2023-06-22T00:55:23;22.25;;;9.45;;
39324;SDS011;25037;49.488;9.900;2023-06-22T00:57:50;18.88;;;9.63;;
39324;SDS011;25037;49.488;9.900;2023-06-22T01:00:17;15.88;;;8.52;;
39324;SDS011;25037;49.488;9.900;2023-06-22T01:02:46;21.23;;;8.70;;
39324;SDS011;25037;49.488;9.900;2023-06-22T01:05:13;21.65;;;10.52;;
39324;SDS011;25037;49.488;9.900;2023-06-22T01:07:47;18.30;;;8.55;;
39324;SDS011;25037;49.488;9.900;2023-06-22T01:12:57;21.33;;;9.13;;
39324;SDS011;25037;49.488;9.900;2023-06-22T01:17:59;17.77;;;8.48;;
39324;SDS011;25037;49.488;9.900;2023-06-22T01:20:27;20.45;;;9.07;;
39324;SDS011;25037;49.488;9.900;2023-06-22T01:25:45;24.13;;;9.35;;
39324;SDS011;25037;49.488;9.900;2023-06-22T01:28:31;21.77;;;8.77;;
39324;SDS011;25037;49.488;9.900;2023-06-22T01:31:15;22.10;;;8.25;;
39324;SDS011;25037;49.488;9.900;2023-06-22T01:33:44;15.57;;;8.10;;
39324;SDS011;25037;49.488;9.900;2023-06-22T01:36:16;18.42;;;7.95;;
39324;SDS011;25037;49.488;9.900;2023-06-22T01:38:43;23.42;;;8.68;;
39324;SDS011;25037;49.488;9.900;2023-06-22T01:41:11;21.65;;;7.85;;
39324;SDS011;25037;49.488;9.900;2023-06-22T01:43:39;19.55;;;8.52;;
39324;SDS011;25037;49.488;9.900;2023-06-22T01:46:06;19.65;;;8.85;;
39324;SDS011;25037;49.488;9.900;2023-06-22T01:48:34;17.58;;;8.75;;
39324;SDS011;25037;49.488;9.900;2023-06-22T01:51:01;16.17;;;8.57;;
39324;SDS011;25037;49.488;9.900;2023-06-22T01:53:29;19.63;;;9.27;;
39324;SDS011;25037;49.488;9.900;2023-06-22T01:55:56;16.90;;;8.45;;
39324;SDS011;25037;49.488;9.900;2023-06-22T01:58:25;21.60;;;10.73;;
39324;SDS011;25037;49.488;9.900;2023-06-22T02:00:56;17.60;;;8.93;;
39324;SDS011;25037;49.488;9.900;2023-06-22T02:03:37;19.17;;;8.95;;
39324;SDS011;25037;49.488;9.900;2023-06-22T02:06:18;23.05;;;10.68;;
39324;SDS011;25037;49.488;9.900;2023-06-22T02:08:51;21.23;;;9.52;;
39324;SDS011;25037;49.488;9.900;2023-06-22T02:11:23;19.05;;;10.07;;
39324;SDS011;25037;49.488;9.900;2023-06-22T02:13:53;23.63;;;10.27;;
39324;SDS011;25037;49.488;9.900;2023-06-22T02:16:22;17.85;;;9.45;;
39324;SDS011;25037;49.488;9.900;2023-06-22T02:18:49;20.45;;;10.73;;
39324;SDS011;25037;49.488;9.900;2023-06-22T02:21:17;16.30;;;9.27;;
39324;SDS011;25037;49.488;9.900;2023-06-22T02:23:45;17.10;;;9.00;;
39324;SDS011;25037;49.488;9.900;2023-06-22T02:26:12;18.83;;;10.43;;
39324;SDS011;25037;49.488;9.900;2023-06-22T02:28:39;16.10;;;10.32;;
39324;SDS011;25037;49.488;9.900;2023-06-22T02:31:06;17.00;;;11.25;;
39324;SDS011;25037;49.488;9.900;2023-06-22T02:33:32;16.45;;;10.40;;
39324;SDS011;25037;49.488;9.900;2023-06-22T02:35:59;21.60;;;10.30;;
39324;SDS011;25037;49.488;9.900;2023-06-22T02:38:26;16.15;;;9.18;;
39324;SDS011;25037;49.488;9.900;2023-06-22T02:40:52;18.25;;;10.02;;
39324;SDS011;25037;49.488;9.900;2023-06-22T02:43:19;21.30;;;12.15;;
39324;SDS011;25037;49.488;9.900;2023-06-22T02:45:46;19.33;;;10.63;;
39324;SDS011;25037;49.488;9.900;2023-06-22T02:48:13;21.30;;;10.45;;
39324;SDS011;25037;49.488;9.900;2023-06-22T02:50:40;19.83;;;10.50;;
39324;SDS011;25037;49.488;9.900;2023-06-22T02:53:06;19.65;;;11.07;;
39324;SDS011;25037;49.488;9.900;2023-06-22T02:55:33;21.67;;;11.48;;
39324;SDS011;25037;49.488;9.900;2023-06-22T02:58:00;21.92;;;11.68;;
39324;SDS011;25037;49.488;9.900;2023-06-22T03:00:31;20.33;;;12.43;;
39324;SDS011;25037;49.488;9.900;2023-06-22T03:02:58;21.02;;;11.77;;
39324;SDS011;25037;49.488;9.900;2023-06-22T03:05:25;22.70;;;12.93;;
39324;SDS011;25037;49.488;9.900;2023-06-22T03:07:52;20.73;;;12.60;;
39324;SDS011;25037;49.488;9.900;2023-06-22T03:10:19;21.35;;;12.10;;
39324;SDS011;25037;49.488;9.900;2023-06-22T03:12:45;22.67;;;12.95;;
39324;SDS011;25037;49.488;9.900;2023-06-22T03:15:12;21.45;;;12.27;;
39324;SDS011;25037;49.488;9.900;2023-06-22T03:17:39;23.55;;;12.35;;
39324;SDS011;25037;49.488;9.900;2023-06-22T03:20:07;26.15;;;13.40;;
39324;SDS011;25037;49.488;9.900;2023-06-22T03:22:37;24.75;;;13.27;;
39324;SDS011;25037;49.488;9.900;2023-06-22T03:25:04;22.50;;;12.27;;
39324;SDS011;25037;49.488;9.900;2023-06-22T03:27:36;23.80;;;14.10;;
39324;SDS011;25037;49.488;9.900;2023-06-22T03:30:04;29.10;;;13.70;;
39324;SDS011;25037;49.488;9.900;2023-06-22T03:32:31;25.30;;;13.93;;
39324;SDS011;25037;49.488;9.900;2023-06-22T03:34:58;26.25;;;12.43;;
39324;SDS011;25037;49.488;9.900;2023-06-22T03:37:25;21.63;;;12.18;;
39324;SDS011;25037;49.488;9.900;2023-06-22T03:39:52;25.75;;;12.57;;
39324;SDS011;25037;49.488;9.900;2023-06-22T03:42:19;23.98;;;13.23;;
39324;SDS011;25037;49.488;9.900;2023-06-22T03:44:46;26.95;;;13.30;;
39324;SDS011;25037;49.488;9.900;2023-06-22T03:47:13;26.17;;;13.65;;
39324;SDS011;25037;49.488;9.900;2023-06-22T03:49:40;23.17;;;13.43;;
39324;SDS011;25037;49.488;9.900;2023-06-22T03:52:06;22.77;;;10.90;;
39324;SDS011;25037;49.488;9.900;2023-06-22T03:54:34;23.38;;;11.80;;
39324;SDS011;25037;49.488;9.900;2023-06-22T03:57:00;21.98;;;11.70;;
39324;SDS011;25037;49.488;9.900;2023-06-22T03:59:27;19.48;;;11.63;;
39324;SDS011;25037;49.488;9.900;2023-06-22T04:01:54;22.27;;;12.40;;
39324;SDS011;25037;49.488;9.900;2023-06-22T04:04:20;26.05;;;13.40;;
39324;SDS011;25037;49.488;9.900;2023-06-22T04:06:47;26.17;;;11.98;;
39324;SDS011;25037;49.488;9.900;2023-06-22T04:09:14;24.50;;;12.95;;
39324;SDS011;25037;49.488;9.900;2023-06-22T04:11:40;24.23;;;11.63;;
39324;SDS011;25037;49.488;9.900;2023-06-22T04:14:07;19.98;;;12.13;;
39324;SDS011;25037;49.488;9.900;2023-06-22T04:16:34;23.85;;;12.88;;
39324;SDS011;25037;49.488;9.900;2023-06-22T04:19:00;23.60;;;11.85;;
39324;SDS011;25037;49.488;9.900;2023-06-22T04:21:27;31.85;;;12.10;;
39324;SDS011;25037;49.488;9.900;2023-06-22T04:23:54;23.42;;;11.90;;
39324;SDS011;25037;49.488;9.900;2023-06-22T04:26:20;23.00;;;12.45;;
39324;SDS011;25037;49.488;9.900;2023-06-22T04:28:47;24.15;;;11.45;;
39324;SDS011;25037;49.488;9.900;2023-06-22T04:31:18;20.08;;;11.05;;
39324;SDS011;25037;49.488;9.900;2023-06-22T04:33:48;23.58;;;12.02;;
39324;SDS011;25037;49.488;9.900;2023-06-22T04:36:17;20.15;;;11.70;;
39324;SDS011;25037;49.488;9.900;2023-06-22T04:38:44;19.30;;;10.90;;
39324;SDS011;25037;49.488;9.900;2023-06-22T04:41:10;24.90;;;10.95;;
39324;SDS011;25037;49.488;9.900;2023-06-22T04:43:40;22.75;;;12.23;;
39324;SDS011;25037;49.488;9.900;2023-06-22T04:46:07;22.05;;;11.48;;
39324;SDS011;25037;49.488;9.900;2023-06-22T04:48:33;20.90;;;10.68;;
39324;SDS011;25037;49.488;9.900;2023-06-22T04:51:01;18.38;;;10.77;;
39324;SDS011;25037;49.488;9.900;2023-06-22T04:53:31;18.95;;;10.40;;
39324;SDS011;25037;49.488;9.900;2023-06-22T04:55:58;17.95;;;10.88;;
39324;SDS011;25037;49.488;9.900;2023-06-22T04:58:25;20.27;;;11.32;;
39324;SDS011;25037;49.488;9.900;2023-06-22T05:00:54;22.77;;;12.27;;
39324;SDS011;25037;49.488;9.900;2023-06-22T05:03:24;20.63;;;12.35;;
39324;SDS011;25037;49.488;9.900;2023-06-22T05:05:52;21.23;;;13.15;;
39324;SDS011;25037;49.488;9.900;2023-06-22T05:08:19;22.67;;;13.07;;
39324;SDS011;25037;49.488;9.900;2023-06-22T05:10:46;23.33;;;13.30;;
39324;SDS011;25037;49.488;9.900;2023-06-22T05:13:29;16.02;;;13.18;;
39324;SDS011;25037;49.488;9.900;2023-06-22T05:15:56;16.15;;;12.25;;
39324;SDS011;25037;49.488;9.900;2023-06-22T05:18:27;20.05;;;13.23;;
39324;SDS011;25037;49.488;9.900;2023-06-22T05:20:56;18.65;;;13.73;;
39324;SDS011;25037;49.488;9.900;2023-06-22T05:23:24;18.90;;;12.63;;
39324;SDS011;25037;49.488;9.900;2023-06-22T05:25:51;18.25;;;14.57;;
39324;SDS011;25037;49.488;9.900;2023-06-22T05:28:17;16.92;;;11.20;;
39324;SDS011;25037;49.488;9.900;2023-06-22T05:30:48;20.33;;;15.23;;
39324;SDS011;25037;49.488;9.900;2023-06-22T05:33:15;19.90;;;14.25;;
39324;SDS011;25037;49.488;9.900;2023-06-22T05:35:42;22.75;;;15.52;;
39324;SDS011;25037;49.488;9.900;2023-06-22T05:38:09;17.20;;;13.45;;
39324;SDS011;25037;49.488;9.900;2023-06-22T05:40:36;18.45;;;14.13;;
39324;SDS011;25037;49.488;9.900;2023-06-22T05:43:02;19.65;;;15.43;;
39324;SDS011;25037;49.488;9.900;2023-06-22T05:45:29;20.73;;;14.10;;
39324;SDS011;25037;49.488;9.900;2023-06-22T05:47:55;17.55;;;15.23;;
39324;SDS011;25037;49.488;9.900;2023-06-22T05:50:22;17.70;;;15.48;;
39324;SDS011;25037;49.488;9.900;2023-06-22T05:52:49;21.10;;;16.00;;
39324;SDS011;25037;49.488;9.900;2023-06-22T05:55:16;18.77;;;16.58;;
39324;SDS011;25037;49.488;9.900;2023-06-22T05:57:44;18.80;;;16.85;;
39324;SDS011;25037;49.488;9.900;2023-06-22T06:00:11;18.40;;;16.45;;
39324;SDS011;25037;49.488;9.900;2023-06-22T06:02:39;16.38;;;14.57;;
39324;SDS011;25037;49.488;9.900;2023-06-22T06:05:11;28.58;;;20.17;;
39324;SDS011;25037;49.488;9.900;2023-06-22T06:07:43;18.35;;;14.13;;
39324;SDS011;25037;49.488;9.900;2023-06-22T06:10:11;19.38;;;17.60;;
39324;SDS011;25037;49.488;9.900;2023-06-22T06:12:38;20.40;;;18.23;;
39324;SDS011;25037;49.488;9.900;2023-06-22T06:15:05;20.95;;;18.77;;
39324;SDS011;25037;49.488;9.900;2023-06-22T06:17:44;19.65;;;17.75;;
39324;SDS011;25037;49.488;9.900;2023-06-22T06:20:14;17.08;;;14.82;;
39324;SDS011;25037;49.488;9.900;2023-06-22T06:22:41;22.77;;;20.63;;
39324;SDS011;25037;49.488;9.900;2023-06-22T06:25:09;21.08;;;18.95;;
39324;SDS011;25037;49.488;9.900;2023-06-22T06:27:35;20.15;;;17.52;;
39324;SDS011;25037;49.488;9.900;2023-06-22T06:30:03;18.63;;;13.18;;
39324;SDS011;25037;49.488;9.900;2023-06-22T06:32:30;17.15;;;14.30;;
39324;SDS011;25037;49.488;9.900;2023-06-22T06:34:57;17.42;;;15.63;;
39324;SDS011;25037;49.488;9.900;2023-06-22T06:37:23;18.33;;;16.42;;
39324;SDS011;25037;49.488;9.900;2023-06-22T06:39:50;21.70;;;16.70;;
39324;SDS011;25037;49.488;9.900;2023-06-22T06:42:17;16.50;;;14.80;;
39324;SDS011;25037;49.488;9.900;2023-06-22T06:44:45;18.85;;;14.50;;
39324;SDS011;25037;49.488;9.900;2023-06-22T06:47:12;17.98;;;16.02;;
39324;SDS011;25037;49.488;9.900;2023-06-22T06:49:38;17.80;;;14.73;;
39324;SDS011;25037;49.488;9.900;2023-06-22T06:52:05;18.23;;;14.98;;
39324;SDS011;25037;49.488;9.900;2023-06-22T06:54:32;17.02;;;14.93;;
39324;SDS011;25037;49.488;9.900;2023-06-22T06:56:59;16.83;;;13.88;;
39324;SDS011;25037;49.488;9.900;2023-06-22T06:59:26;16.75;;;13.82;;
39324;SDS011;25037;49.488;9.900;2023-06-22T07:01:52;14.95;;;12.57;;
39324;SDS011;25037;49.488;9.900;2023-06-22T07:04:19;16.38;;;13.70;;
39324;SDS011;25037;49.488;9.900;2023-06-22T07:06:46;17.25;;;11.98;;
39324;SDS011;25037;49.488;9.900;2023-06-22T07:09:12;16.17;;;12.90;;
39324;SDS011;25037;49.488;9.900;2023-06-22T07:11:39;15.60;;;13.15;;
39324;SDS011;25037;49.488;9.900;2023-06-22T07:14:06;16.38;;;12.57;;
39324;SDS011;25037;49.488;9.900;2023-06-22T07:16:32;15.15;;;13.18;;
39324;SDS011;25037;49.488;9.900;2023-06-22T07:18:59;14.23;;;10.38;;
39324;SDS011;25037;49.488;9.900;2023-06-22T07:21:26;16.75;;;12.57;;
39324;SDS011;25037;49.488;9.900;2023-06-22T07:23:53;13.18;;;10.82;;
39324;SDS011;25037;49.488;9.900;2023-06-22T07:26:20;16.63;;;13.20;;
39324;SDS011;25037;49.488;9.900;2023-06-22T07:28:48;16.73;;;11.93;;
39324;SDS011;25037;49.488;9.900;2023-06-22T07:31:14;15.38;;;11.48;;
39324;SDS011;25037;49.488;9.900;2023-06-22T07:33:41;16.70;;;12.15;;
39324;SDS011;25037;49.488;9.900;2023-06-22T07:36:08;14.73;;;11.80;;
39324;SDS011;25037;49.488;9.900;2023-06-22T07:38:35;13.98;;;11.15;;
39324;SDS011;25037;49.488;9.900;2023-06-22T07:41:01;13.95;;;11.80;;
39324;SDS011;25037;49.488;9.900;2023-06-22T07:43:31;13.48;;;12.07;;
39324;SDS011;25037;49.488;9.900;2023-06-22T07:46:00;18.52;;;11.68;;
39324;SDS011;25037;49.488;9.900;2023-06-22T07:48:27;14.70;;;11.95;;
39324;SDS011;25037;49.488;9.900;2023-06-22T07:50:53;12.70;;;9.95;;
39324;SDS011;25037;49.488;9.900;2023-06-22T07:53:21;14.32;;;11.90;;
39324;SDS011;25037;49.488;9.900;2023-06-22T07:55:49;15.02;;;11.88;;
39324;SDS011;25037;49.488;9.900;2023-06-22T07:58:16;14.18;;;11.93;;
39324;SDS011;25037;49.488;9.900;2023-06-22T08:00:45;13.90;;;12.45;;
39324;SDS011;25037;49.488;9.900;2023-06-22T08:03:11;14.68;;;11.23;;
39324;SDS011;25037;49.488;9.900;2023-06-22T08:05:38;12.43;;;10.88;;
39324;SDS011;25037;49.488;9.900;2023-06-22T08:08:05;14.32;;;11.20;;
39324;SDS011;25037;49.488;9.900;2023-06-22T08:10:32;17.15;;;11.07;;
39324;SDS011;25037;49.488;9.900;2023-06-22T08:12:59;11.55;;;9.30;;
39324;SDS011;25037;49.488;9.900;2023-06-22T08:15:26;11.98;;;9.13;;
39324;SDS011;25037;49.488;9.900;2023-06-22T08:17:53;11.32;;;8.63;;
39324;SDS011;25037;49.488;9.900;2023-06-22T08:20:20;11.48;;;9.10;;
39324;SDS011;25037;49.488;9.900;2023-06-22T08:22:47;10.32;;;8.73;;
39324;SDS011;25037;49.488;9.900;2023-06-22T08:25:13;11.90;;;9.02;;
39324;SDS011;25037;49.488;9.900;2023-06-22T08:27:40;11.45;;;7.25;;
39324;SDS011;25037;49.488;9.900;2023-06-22T08:30:12;11.00;;;8.88;;
39324;SDS011;25037;49.488;9.900;2023-06-22T08:32:39;12.10;;;9.35;;
39324;SDS011;25037;49.488;9.900;2023-06-22T08:35:05;10.10;;;8.40;;
39324;SDS011;25037;49.488;9.900;2023-06-22T08:37:34;14.48;;;9.77;;
39324;SDS011;25037;49.488;9.900;2023-06-22T08:40:03;9.75;;;8.75;;
39324;SDS011;25037;49.488;9.900;2023-06-22T08:42:32;9.43;;;7.78;;
39324;SDS011;25037;49.488;9.900;2023-06-22T08:44:58;12.63;;;8.02;;
39324;SDS011;25037;49.488;9.900;2023-06-22T08:47:26;10.90;;;9.32;;
39324;SDS011;25037;49.488;9.900;2023-06-22T08:49:53;12.00;;;8.05;;
39324;SDS011;25037;49.488;9.900;2023-06-22T08:52:20;11.00;;;7.57;;
39324;SDS011;25037;49.488;9.900;2023-06-22T08:54:47;9.27;;;7.13;;
39324;SDS011;25037;49.488;9.900;2023-06-22T08:57:14;11.73;;;6.60;;
39324;SDS011;25037;49.488;9.900;2023-06-22T08:59:40;10.05;;;7.47;;
39324;SDS011;25037;49.488;9.900;2023-06-22T09:02:08;10.18;;;7.72;;
39324;SDS011;25037;49.488;9.900;2023-06-22T09:04:35;8.75;;;6.95;;
39324;SDS011;25037;49.488;9.900;2023-06-22T09:07:02;9.65;;;7.22;;
39324;SDS011;25037;49.488;9.900;2023-06-22T09:09:29;9.32;;;6.25;;
39324;SDS011;25037;49.488;9.900;2023-06-22T09:11:56;9.18;;;6.45;;
39324;SDS011;25037;49.488;9.900;2023-06-22T09:14:22;8.88;;;5.22;;
39324;SDS011;25037;49.488;9.900;2023-06-22T09:16:49;7.68;;;6.60;;
39324;SDS011;25037;49.488;9.900;2023-06-22T09:19:16;9.45;;;6.38;;
39324;SDS011;25037;49.488;9.900;2023-06-22T09:21:42;10.77;;;5.90;;
39324;SDS011;25037;49.488;9.900;2023-06-22T09:24:09;11.93;;;6.47;;
39324;SDS011;25037;49.488;9.900;2023-06-22T09:26:36;9.85;;;6.30;;
39324;SDS011;25037;49.488;9.900;2023-06-22T09:29:04;8.05;;;4.70;;
39324;SDS011;25037;49.488;9.900;2023-06-22T09:31:32;8.38;;;4.80;;
39324;SDS011;25037;49.488;9.900;2023-06-22T09:33:59;8.55;;;6.05;;
39324;SDS011;25037;49.488;9.900;2023-06-22T09:36:25;11.10;;;5.43;;
39324;SDS011;25037;49.488;9.900;2023-06-22T09:38:52;12.07;;;6.18;;
39324;SDS011;25037;49.488;9.900;2023-06-22T09:41:21;8.75;;;5.50;;
39324;SDS011;25037;49.488;9.900;2023-06-22T09:43:48;13.43;;;6.38;;
39324;SDS011;25037;49.488;9.900;2023-06-22T09:46:15;10.73;;;7.05;;
39324;SDS011;25037;49.488;9.900;2023-06-22T09:48:43;12.00;;;6.38;;
39324;SDS011;25037;49.488;9.900;2023-06-22T09:51:09;11.10;;;4.40;;
39324;SDS011;25037;49.488;9.900;2023-06-22T09:53:36;12.93;;;8.63;;
39324;SDS011;25037;49.488;9.900;2023-06-22T09:56:04;10.48;;;6.30;;
39324;SDS011;25037;49.488;9.900;2023-06-22T09:58:32;11.57;;;6.65;;
39324;SDS011;25037;49.488;9.900;2023-06-22T10:00:59;11.40;;;7.07;;
39324;SDS011;25037;49.488;9.900;2023-06-22T10:03:25;13.40;;;8.73;;
39324;SDS011;25037;49.488;9.900;2023-06-22T10:05:52;10.30;;;6.68;;
39324;SDS011;25037;49.488;9.900;2023-06-22T10:08:19;12.55;;;7.00;;
39324;SDS011;25037;49.488;9.900;2023-06-22T10:10:46;11.02;;;7.80;;
39324;SDS011;25037;49.488;9.900;2023-06-22T10:13:13;11.88;;;5.97;;
39324;SDS011;25037;49.488;9.900;2023-06-22T10:15:41;12.50;;;6.65;;
39324;SDS011;25037;49.488;9.900;2023-06-22T10:18:08;12.25;;;7.93;;
39324;SDS011;25037;49.488;9.900;2023-06-22T10:20:35;10.00;;;7.10;;
39324;SDS011;25037;49.488;9.900;2023-06-22T10:23:02;10.32;;;6.70;;
39324;SDS011;25037;49.488;9.900;2023-06-22T10:25:29;14.77;;;7.75;;
39324;SDS011;25037;49.488;9.900;2023-06-22T10:27:56;10.80;;;6.70;;
39324;SDS011;25037;49.488;9.900;2023-06-22T10:30:23;10.00;;;7.55;;
39324;SDS011;25037;49.488;9.900;2023-06-22T10:32:50;13.38;;;7.07;;
39324;SDS011;25037;49.488;9.900;2023-06-22T10:35:17;13.75;;;7.07;;
39324;SDS011;25037;49.488;9.900;2023-06-22T10:37:44;12.00;;;7.32;;
39324;SDS011;25037;49.488;9.900;2023-06-22T10:40:15;12.93;;;6.78;;
39324;SDS011;25037;49.488;9.900;2023-06-22T10:42:43;15.90;;;8.13;;
39324;SDS011;25037;49.488;9.900;2023-06-22T10:45:10;12.45;;;7.07;;
39324;SDS011;25037;49.488;9.900;2023-06-22T10:47:37;10.68;;;7.57;;
39324;SDS011;25037;49.488;9.900;2023-06-22T10:50:04;12.32;;;6.65;;
39324;SDS011;25037;49.488;9.900;2023-06-22T10:52:31;12.70;;;7.85;;
39324;SDS011;25037;49.488;9.900;2023-06-22T10:54:58;15.18;;;7.35;;
39324;SDS011;25037;49.488;9.900;2023-06-22T10:57:25;12.02;;;7.25;;
39324;SDS011;25037;49.488;9.900;2023-06-22T10:59:52;12.73;;;7.32;;
39324;SDS011;25037;49.488;9.900;2023-06-22T11:02:19;10.93;;;7.43;;
39324;SDS011;25037;49.488;9.900;2023-06-22T11:04:45;11.95;;;6.72;;
39324;SDS011;25037;49.488;9.900;2023-06-22T11:07:13;12.45;;;7.55;;
39324;SDS011;25037;49.488;9.900;2023-06-22T11:09:42;13.10;;;7.35;;
39324;SDS011;25037;49.488;9.900;2023-06-22T11:12:10;14.18;;;7.68;;
39324;SDS011;25037;49.488;9.900;2023-06-22T11:14:36;16.27;;;7.40;;
39324;SDS011;25037;49.488;9.900;2023-06-22T11:17:04;12.95;;;7.72;;
39324;SDS011;25037;49.488;9.900;2023-06-22T11:19:31;11.77;;;7.20;;
39324;SDS011;25037;49.488;9.900;2023-06-22T11:21:58;14.20;;;7.43;;
39324;SDS011;25037;49.488;9.900;2023-06-22T11:24:25;12.38;;;7.65;;
39324;SDS011;25037;49.488;9.900;2023-06-22T11:26:51;9.95;;;5.53;;
39324;SDS011;25037;49.488;9.900;2023-06-22T11:29:18;11.23;;;6.68;;
39324;SDS011;25037;49.488;9.900;2023-06-22T11:32:02;10.65;;;7.38;;
39324;SDS011;25037;49.488;9.900;2023-06-22T11:34:29;10.50;;;7.15;;
39324;SDS011;25037;49.488;9.900;2023-06-22T11:36:56;14.95;;;8.55;;
39324;SDS011;25037;49.488;9.900;2023-06-22T11:39:22;15.20;;;7.72;;
39324;SDS011;25037;49.488;9.900;2023-06-22T11:42:06;11.00;;;6.75;;
39324;SDS011;25037;49.488;9.900;2023-06-22T11:44:33;13.25;;;7.97;;
39324;SDS011;25037;49.488;9.900;2023-06-22T11:47:00;11.45;;;7.25;;
39324;SDS011;25037;49.488;9.900;2023-06-22T11:49:27;12.23;;;7.30;;
39324;SDS011;25037;49.488;9.900;2023-06-22T11:51:54;18.00;;;8.23;;
39324;SDS011;25037;49.488;9.900;2023-06-22T11:54:20;14.88;;;7.03;;
39324;SDS011;25037;49.488;9.900;2023-06-22T11:56:47;13.48;;;7.38;;
39324;SDS011;25037;49.488;9.900;2023-06-22T11:59:14;18.25;;;8.48;;
39324;SDS011;25037;49.488;9.900;2023-06-22T12:01:40;15.65;;;7.85;;
39324;SDS011;25037;49.488;9.900;2023-06-22T12:04:07;14.70;;;7.43;;
39324;SDS011;25037;49.488;9.900;2023-06-22T12:06:37;14.63;;;7.53;;
39324;SDS011;25037;49.488;9.900;2023-06-22T12:09:08;13.85;;;7.72;;
39324;SDS011;25037;49.488;9.900;2023-06-22T12:11:35;14.52;;;7.40;;
39324;SDS011;25037;49.488;9.900;2023-06-22T12:14:01;10.48;;;8.05;;
39324;SDS011;25037;49.488;9.900;2023-06-22T12:16:28;12.25;;;8.27;;
39324;SDS011;25037;49.488;9.900;2023-06-22T12:18:55;11.23;;;6.82;;
39324;SDS011;25037;49.488;9.900;2023-06-22T12:21:22;10.18;;;7.68;;
39324;SDS011;25037;49.488;9.900;2023-06-22T12:23:49;12.30;;;7.75;;
39324;SDS011;25037;49.488;9.900;2023-06-22T12:26:16;15.13;;;7.97;;
39324;SDS011;25037;49.488;9.900;2023-06-22T12:28:42;12.00;;;8.35;;
39324;SDS011;25037;49.488;9.900;2023-06-22T12:31:09;11.05;;;8.18;;
39324;SDS011;25037;49.488;9.900;2023-06-22T12:33:36;12.27;;;7.80;;
39324;SDS011;25037;49.488;9.900;2023-06-22T12:36:02;11.45;;;8.48;;
39324;SDS011;25037;49.488;9.900;2023-06-22T12:38:31;12.20;;;7.97;;
39324;SDS011;25037;49.488;9.900;2023-06-22T12:40:57;10.82;;;8.07;;
39324;SDS011;25037;49.488;9.900;2023-06-22T12:43:24;10.43;;;7.32;;
39324;SDS011;25037;49.488;9.900;2023-06-22T12:45:51;14.60;;;8.55;;
39324;SDS011;25037;49.488;9.900;2023-06-22T12:48:19;12.60;;;7.72;;
39324;SDS011;25037;49.488;9.900;2023-06-22T12:50:48;13.68;;;7.75;;
39324;SDS011;25037;49.488;9.900;2023-06-22T12:53:14;11.65;;;6.50;;
39324;SDS011;25037;49.488;9.900;2023-06-22T12:55:41;13.75;;;6.10;;
39324;SDS011;25037;49.488;9.900;2023-06-22T12:58:08;10.57;;;7.00;;
39324;SDS011;25037;49.488;9.900;2023-06-22T13:00:34;12.05;;;7.70;;
39324;SDS011;25037;49.488;9.900;2023-06-22T13:03:01;15.40;;;7.35;;
39324;SDS011;25037;49.488;9.900;2023-06-22T13:05:28;14.15;;;8.68;;
39324;SDS011;25037;49.488;9.900;2023-06-22T13:07:56;13.25;;;8.02;;
39324;SDS011;25037;49.488;9.900;2023-06-22T13:10:23;12.75;;;8.07;;
39324;SDS011;25037;49.488;9.900;2023-06-22T13:12:50;12.23;;;7.55;;
39324;SDS011;25037;49.488;9.900;2023-06-22T13:15:16;12.07;;;7.28;;
39324;SDS011;25037;49.488;9.900;2023-06-22T13:17:43;13.00;;;7.85;;
39324;SDS011;25037;49.488;9.900;2023-06-22T13:20:10;13.68;;;6.88;;
39324;SDS011;25037;49.488;9.900;2023-06-22T13:22:37;12.77;;;6.47;;
39324;SDS011;25037;49.488;9.900;2023-06-22T13:25:06;14.15;;;8.02;;
39324;SDS011;25037;49.488;9.900;2023-06-22T13:27:33;11.82;;;7.55;;
39324;SDS011;25037;49.488;9.900;2023-06-22T13:30:00;11.07;;;7.47;;
39324;SDS011;25037;49.488;9.900;2023-06-22T13:32:28;12.27;;;8.15;;
39324;SDS011;25037;49.488;9.900;2023-06-22T13:34:55;15.25;;;7.57;;
39324;SDS011;25037;49.488;9.900;2023-06-22T13:37:22;13.15;;;8.00;;
39324;SDS011;25037;49.488;9.900;2023-06-22T13:39:48;9.00;;;7.18;;
39324;SDS011;25037;49.488;9.900;2023-06-22T13:42:15;14.65;;;7.43;;
39324;SDS011;25037;49.488;9.900;2023-06-22T13:44:42;14.85;;;7.95;;
39324;SDS011;25037;49.488;9.900;2023-06-22T13:47:09;14.40;;;7.22;;
39324;SDS011;25037;49.488;9.900;2023-06-22T13:49:35;14.52;;;7.93;;
39324;SDS011;25037;49.488;9.900;2023-06-22T13:52:02;10.52;;;8.27;;
39324;SDS011;25037;49.488;9.900;2023-06-22T13:54:30;15.40;;;7.60;;
39324;SDS011;25037;49.488;9.900;2023-06-22T13:56:59;13.85;;;6.05;;
39324;SDS011;25037;49.488;9.900;2023-06-22T13:59:26;15.25;;;8.57;;
39324;SDS011;25037;49.488;9.900;2023-06-22T14:01:54;10.27;;;7.22;;
39324;SDS011;25037;49.488;9.900;2023-06-22T14:04:22;14.23;;;7.47;;
39324;SDS011;25037;49.488;9.900;2023-06-22T14:06:49;10.63;;;7.28;;
39324;SDS011;25037;49.488;9.900;2023-06-22T14:09:16;13.52;;;7.60;;
39324;SDS011;25037;49.488;9.900;2023-06-22T14:11:43;12.13;;;7.65;;
39324;SDS011;25037;49.488;9.900;2023-06-22T14:14:09;14.00;;;7.82;;
39324;SDS011;25037;49.488;9.900;2023-06-22T14:16:36;13.57;;;7.25;;
39324;SDS011;25037;49.488;9.900;2023-06-22T14:19:03;13.68;;;8.05;;
39324;SDS011;25037;49.488;9.900;2023-06-22T14:21:30;13.65;;;7.35;;
39324;SDS011;25037;49.488;9.900;2023-06-22T14:23:57;13.50;;;8.07;;
39324;SDS011;25037;49.488;9.900;2023-06-22T14:26:23;15.65;;;8.93;;
39324;SDS011;25037;49.488;9.900;2023-06-22T14:28:51;10.88;;;6.75;;
39324;SDS011;25037;49.488;9.900;2023-06-22T14:31:19;14.00;;;7.53;;
39324;SDS011;25037;49.488;9.900;2023-06-22T14:33:47;17.60;;;9.02;;
39324;SDS011;25037;49.488;9.900;2023-06-22T14:36:18;15.63;;;7.75;;
39324;SDS011;25037;49.488;9.900;2023-06-22T14:38:45;15.25;;;6.63;;
39324;SDS011;25037;49.488;9.900;2023-06-22T14:41:13;11.75;;;5.78;;